createdAt,value
2022-11-10T08:30:50.286Z,64.30
2022-11-10T08:33:19.980Z,65.47
2022-11-10T08:35:48.801Z,130.73
2022-11-10T08:38:21.134Z,140.80
2022-11-10T08:40:47.981Z,119.72
2022-11-10T08:43:15.534Z,104.30
2022-11-10T08:45:43.706Z,95.47
2022-11-10T08:48:17.632Z,89.80
2022-11-10T08:50:44.522Z,92.70
2022-11-10T08:53:16.160Z,133.15
2022-11-10T08:55:43.926Z,145.85
2022-11-10T08:58:13.625Z,153.55
2022-11-10T09:00:40.190Z,130.43
2022-11-10T09:03:15.261Z,125.32
2022-11-10T09:05:42.665Z,176.40
2022-11-10T09:08:09.937Z,132.05
2022-11-10T09:10:41.839Z,130.73
2022-11-10T09:13:08.906Z,133.75
2022-11-10T09:15:35.817Z,122.40
2022-11-10T09:18:04.453Z,152.88
2022-11-10T09:20:33.733Z,162.32
2022-11-10T09:23:17.661Z,146.38
2022-11-10T09:25:52.769Z,163.13
2022-11-10T09:28:20.288Z,157.98
2022-11-10T09:30:51.244Z,147.13
2022-11-10T09:33:18.440Z,142.15
2022-11-10T09:35:45.174Z,158.25
2022-11-10T09:38:12.163Z,128.60
2022-11-10T09:41:03.387Z,65.05
2022-11-10T09:44:02.067Z,54.33
2022-11-10T09:46:35.418Z,57.72
2022-11-10T09:49:13.029Z,64.80
2022-11-10T09:51:47.991Z,70.50
2022-11-10T09:54:37.113Z,76.07
2022-11-10T09:57:06.303Z,62.67
2022-11-10T09:59:34.421Z,79.45
2022-11-10T10:02:05.985Z,69.95
2022-11-10T10:04:48.776Z,71.90
2022-11-10T10:07:43.954Z,85.38
2022-11-10T10:10:17.668Z,106.63
2022-11-10T10:12:54.645Z,113.53
2022-11-10T10:15:30.276Z,120.07
2022-11-10T10:18:03.209Z,135.30
2022-11-10T10:20:46.761Z,127.78
2022-11-10T10:23:35.209Z,118.60
2022-11-10T10:26:15.602Z,130.02
2022-11-10T10:28:46.663Z,106.55
2022-11-10T10:31:22.014Z,85.78
2022-11-10T10:33:49.166Z,68.85
2022-11-10T10:36:23.759Z,48.70
2022-11-10T10:39:04.610Z,36.42
2022-11-10T10:41:34.655Z,30.50
2022-11-10T10:44:03.092Z,31.42
2022-11-10T10:46:35.766Z,31.90
2022-11-10T10:49:32.948Z,32.65
2022-11-10T10:52:07.123Z,31.45
2022-11-10T10:54:36.363Z,33.85
2022-11-10T10:57:20.778Z,34.85
2022-11-10T10:59:47.463Z,37.35
2022-11-10T11:02:40.350Z,35.60
2022-11-10T11:05:15.963Z,35.78
2022-11-10T11:07:56.001Z,36.15
2022-11-10T11:10:34.537Z,35.88
2022-11-10T11:13:14.672Z,37.88
2022-11-10T11:15:41.208Z,37.78
2022-11-10T11:18:20.494Z,36.88
2022-11-10T11:21:20.952Z,37.97
2022-11-10T11:24:03.616Z,36.10
2022-11-10T11:26:43.791Z,37.40
2022-11-10T11:29:32.881Z,35.90
2022-11-10T11:32:21.777Z,36.42
2022-11-10T11:35:03.040Z,37.05
2022-11-10T11:37:46.165Z,38.72
2022-11-10T11:40:37.969Z,35.72
2022-11-10T11:43:23.142Z,33.90
2022-11-10T11:45:59.793Z,37.88
2022-11-10T11:49:15.449Z,36.78
2022-11-10T11:52:03.422Z,37.95
2022-11-10T11:54:47.416Z,38.05
2022-11-10T11:57:29.093Z,43.43
2022-11-10T12:00:02.556Z,45.30
2022-11-10T12:02:52.673Z,48.95
2022-11-10T12:05:37.901Z,56.00
2022-11-10T12:08:33.054Z,71.90
2022-11-10T12:11:05.277Z,82.50
2022-11-10T12:13:31.709Z,85.20
2022-11-10T12:16:17.020Z,113.93
2022-11-10T12:18:57.900Z,111.60
2022-11-10T12:21:34.973Z,113.28
2022-11-10T12:24:29.563Z,140.30
2022-11-10T12:26:59.831Z,137.02
2022-11-10T12:29:43.041Z,146.43
2022-11-10T12:32:15.044Z,145.43
2022-11-10T12:34:50.333Z,143.25
2022-11-10T12:37:28.429Z,147.80
2022-11-10T12:40:17.789Z,142.95
2022-11-10T12:42:51.308Z,140.20
2022-11-10T12:45:22.779Z,131.00
2022-11-10T12:47:49.831Z,129.98
2022-11-10T12:50:16.254Z,127.95
2022-11-10T12:53:11.822Z,125.63
2022-11-10T12:55:46.223Z,109.43
2022-11-10T12:58:14.488Z,101.88
2022-11-10T13:00:55.480Z,99.93
2022-11-10T13:03:32.454Z,89.88
2022-11-10T13:06:02.293Z,86.85
2022-11-10T13:08:45.649Z,86.47
2022-11-10T13:11:12.062Z,81.43
2022-11-10T13:13:53.176Z,76.65
2022-11-10T13:16:44.819Z,75.13
2022-11-10T13:19:38.981Z,74.82
2022-11-10T13:22:10.297Z,75.60
2022-11-10T13:24:42.492Z,74.22
2022-11-10T13:27:32.966Z,78.03
2022-11-10T13:30:00.258Z,75.03
2022-11-10T13:32:32.293Z,72.68
2022-11-10T13:35:29.557Z,75.28
2022-11-10T13:38:00.381Z,75.15
2022-11-10T13:40:34.738Z,76.10
2022-11-10T13:43:01.152Z,73.85
2022-11-10T13:45:33.742Z,76.13
2022-11-10T13:48:34.930Z,75.65
2022-11-10T13:51:14.757Z,74.32
2022-11-10T13:54:42.743Z,76.70
2022-11-10T13:57:34.628Z,73.88
2022-11-10T14:00:07.665Z,71.25
2022-11-10T14:02:53.048Z,80.22
2022-11-10T14:05:29.040Z,71.38
2022-11-10T14:08:04.326Z,80.45
2022-11-10T14:11:02.469Z,80.80
2022-11-10T14:13:44.914Z,81.28
2022-11-10T14:16:18.974Z,88.55
2022-11-10T14:18:51.697Z,87.85
2022-11-10T14:21:41.042Z,90.45
2022-11-10T14:24:11.710Z,94.10
2022-11-10T14:26:46.768Z,99.35
2022-11-10T14:29:20.971Z,97.07
2022-11-10T14:31:47.741Z,94.68
2022-11-10T14:34:18.581Z,90.70
2022-11-10T14:36:56.654Z,89.30
2022-11-10T14:39:28.982Z,81.05
2022-11-10T14:41:57.326Z,76.55
2022-11-10T14:44:27.074Z,72.90
2022-11-10T14:46:54.846Z,69.10
2022-11-10T14:49:25.886Z,71.57
2022-11-10T14:51:57.610Z,69.85
2022-11-10T14:54:27.468Z,67.60
2022-11-10T14:56:55.760Z,68.60
2022-11-10T14:59:24.314Z,71.93
2022-11-10T15:01:54.837Z,69.32
2022-11-10T15:04:28.733Z,69.55
2022-11-10T15:06:56.629Z,68.55
2022-11-10T15:09:27.012Z,72.70
2022-11-10T15:12:02.478Z,73.75
2022-11-10T15:14:39.507Z,71.75
2022-11-10T15:17:11.756Z,70.55
2022-11-10T15:19:44.098Z,71.68
2022-11-10T15:22:22.102Z,69.13
2022-11-10T15:24:51.625Z,73.88
2022-11-10T15:27:27.830Z,73.65
2022-11-10T15:29:56.084Z,79.32
2022-11-10T15:32:28.058Z,76.03
2022-11-10T15:35:09.088Z,77.40
2022-11-10T15:37:35.760Z,71.78
2022-11-10T15:40:31.535Z,77.30
2022-11-10T15:43:29.058Z,81.25
2022-11-10T15:45:59.798Z,75.63
2022-11-10T15:48:37.797Z,80.03
2022-11-10T15:51:04.747Z,86.55
2022-11-10T15:53:37.447Z,93.13
2022-11-10T15:56:04.297Z,102.22
2022-11-10T15:58:30.868Z,106.55
2022-11-10T16:00:57.387Z,100.68
2022-11-10T16:03:24.187Z,100.32
2022-11-10T16:05:50.729Z,106.07
2022-11-10T16:08:22.522Z,101.75
2022-11-10T16:10:54.071Z,99.35
2022-11-10T16:13:26.660Z,102.68
2022-11-10T16:15:53.988Z,99.82
2022-11-10T16:18:23.772Z,98.97
2022-11-10T16:20:52.225Z,97.28
2022-11-10T16:23:19.656Z,96.22
2022-11-10T16:25:48.616Z,92.28
2022-11-10T16:28:24.098Z,89.85
2022-11-10T16:30:51.661Z,84.75
2022-11-10T16:33:20.168Z,89.10
2022-11-10T16:35:50.281Z,81.57
2022-11-10T16:38:22.437Z,81.05
2022-11-10T16:40:54.671Z,76.45
2022-11-10T16:43:22.069Z,87.53
2022-11-10T16:45:51.314Z,82.22
2022-11-10T16:48:38.056Z,84.82
2022-11-10T16:51:07.123Z,86.60
2022-11-10T16:53:33.662Z,88.38
2022-11-10T16:56:00.166Z,86.82
2022-11-10T16:58:28.156Z,89.47
2022-11-10T17:00:59.216Z,85.53
2022-11-10T17:03:35.557Z,87.93
2022-11-10T17:06:02.211Z,75.65
2022-11-10T17:08:31.007Z,77.88
2022-11-10T17:10:57.546Z,72.13
2022-11-10T17:13:25.141Z,74.85
2022-11-10T17:16:03.143Z,67.80
2022-11-10T17:18:29.827Z,66.40
2022-11-10T17:20:56.488Z,65.38
2022-11-10T17:23:24.973Z,67.32
2022-11-10T17:25:54.119Z,64.00
2022-11-10T17:28:20.982Z,64.50
2022-11-10T17:30:47.524Z,64.57
2022-11-10T17:33:14.092Z,63.33
2022-11-10T17:35:45.290Z,61.55
2022-11-10T17:38:17.145Z,65.65
2022-11-10T17:40:43.918Z,62.78
2022-11-10T17:43:12.325Z,64.05
2022-11-10T17:45:39.707Z,64.72
2022-11-10T17:48:07.332Z,67.95
2022-11-10T17:50:36.516Z,61.42
2022-11-10T17:53:24.080Z,64.18
2022-11-10T17:55:51.352Z,64.45
2022-11-10T17:58:18.195Z,65.70
2022-11-10T18:00:46.207Z,64.20
2022-11-10T18:03:18.379Z,63.65
2022-11-10T18:05:45.575Z,67.03
2022-11-10T18:08:13.595Z,65.93
2022-11-10T18:10:46.452Z,62.88
2022-11-10T18:13:13.017Z,62.58
2022-11-10T18:15:43.665Z,62.90
2022-11-10T18:18:11.975Z,62.15
2022-11-10T18:20:39.042Z,67.35
2022-11-10T18:23:07.240Z,59.63
2022-11-10T18:25:34.813Z,65.63
2022-11-10T18:28:01.361Z,63.83
2022-11-10T18:30:32.262Z,66.07
2022-11-10T18:33:02.983Z,65.88
2022-11-10T18:35:29.718Z,63.03
2022-11-10T18:37:57.437Z,63.38
2022-11-10T18:40:23.973Z,68.72
2022-11-10T18:42:50.541Z,64.63
2022-11-10T18:45:17.088Z,69.57
2022-11-10T18:47:43.573Z,66.50
2022-11-10T18:50:10.621Z,71.10
2022-11-10T18:52:37.191Z,70.53
2022-11-10T18:55:03.759Z,71.15
2022-11-10T18:57:30.253Z,71.60
2022-11-10T18:59:56.788Z,73.28
2022-11-10T19:02:23.274Z,72.95
2022-11-10T19:04:53.502Z,73.60
2022-11-10T19:07:20.699Z,73.88
2022-11-10T19:09:48.335Z,74.85
2022-11-10T19:12:14.991Z,76.05
2022-11-10T19:14:41.477Z,78.25
2022-11-10T19:17:08.074Z,79.32
2022-11-10T19:19:34.594Z,74.95
2022-11-10T19:22:01.145Z,74.78
2022-11-10T19:24:28.960Z,75.32
2022-11-10T19:26:56.883Z,71.20
2022-11-10T19:29:23.804Z,69.25
2022-11-10T19:31:50.330Z,71.40
2022-11-10T19:34:18.888Z,73.13
2022-11-10T19:36:46.095Z,70.95
2022-11-10T19:39:12.809Z,73.35
2022-11-10T19:41:39.481Z,72.32
2022-11-10T19:44:06.061Z,73.28
2022-11-10T19:46:36.602Z,71.32
2022-11-10T19:49:04.276Z,70.70
2022-11-10T19:51:30.782Z,70.38
2022-11-10T19:54:02.654Z,77.88
2022-11-10T19:56:32.149Z,71.70
2022-11-10T19:58:59.463Z,73.30
2022-11-10T20:01:26.575Z,76.13
2022-11-10T20:03:53.333Z,74.95
2022-11-10T20:06:21.839Z,75.53
2022-11-10T20:08:49.226Z,78.20
2022-11-10T20:11:19.259Z,76.53
2022-11-10T20:13:45.925Z,71.60
2022-11-10T20:16:13.004Z,68.15
2022-11-10T20:18:40.610Z,69.28
2022-11-10T20:21:13.043Z,72.57
2022-11-10T20:23:40.322Z,82.95
2022-11-10T20:26:09.982Z,75.38
2022-11-10T20:28:38.211Z,64.03
2022-11-10T20:31:07.754Z,60.33
2022-11-10T20:33:35.529Z,58.38
2022-11-10T20:36:19.967Z,53.67
2022-11-10T20:41:20.188Z,48.33
2022-11-10T20:43:47.168Z,49.67
2022-11-10T20:46:33.300Z,49.42
2022-11-10T20:49:02.902Z,47.63
2022-11-10T20:51:29.471Z,48.80
2022-11-10T20:53:56.976Z,48.83
2022-11-10T20:56:29.287Z,47.67
2022-11-10T20:58:56.575Z,49.45
2022-11-10T21:01:23.750Z,48.88
2022-11-10T21:03:50.445Z,53.03
2022-11-10T21:06:17.365Z,47.88
2022-11-10T21:08:43.899Z,45.75
2022-11-10T21:11:10.753Z,45.05
2022-11-10T21:13:37.571Z,44.90
2022-11-10T21:16:06.122Z,43.92
2022-11-10T21:18:36.886Z,42.70
2022-11-10T21:21:04.932Z,42.78
2022-11-10T21:23:31.967Z,42.47
2022-11-10T21:26:01.248Z,45.42
2022-11-10T21:28:27.791Z,45.85
2022-11-10T21:31:05.391Z,51.60
2022-11-10T21:33:31.965Z,56.00
2022-11-10T21:36:06.082Z,57.85
2022-11-10T21:38:32.838Z,57.38
2022-11-10T21:40:59.507Z,52.92
2022-11-10T21:43:26.096Z,49.13
2022-11-10T21:46:02.843Z,48.45
2022-11-10T21:48:29.627Z,45.33
2022-11-10T21:51:01.113Z,45.03
2022-11-10T21:53:27.828Z,43.58
2022-11-10T21:56:02.353Z,44.83
2022-11-10T21:58:29.177Z,44.50
2022-11-10T22:01:07.552Z,43.63
2022-11-10T22:03:34.978Z,44.97
2022-11-10T22:06:05.886Z,44.40
2022-11-10T22:08:33.177Z,43.92
2022-11-10T22:11:18.484Z,47.92
2022-11-10T22:14:03.726Z,48.45
2022-11-10T22:17:07.143Z,48.90
2022-11-10T22:19:35.389Z,51.25
2022-11-10T22:22:04.188Z,48.13
2022-11-10T22:24:30.939Z,53.42
2022-11-10T22:26:59.593Z,56.53
2022-11-10T22:29:32.170Z,56.65
2022-11-10T22:32:02.547Z,56.30
2022-11-10T22:34:29.214Z,58.95
2022-11-10T22:36:55.938Z,61.72
2022-11-10T22:39:22.810Z,69.03
2022-11-10T22:42:08.252Z,73.07
2022-11-10T22:44:36.258Z,73.43
2022-11-10T22:47:02.824Z,73.47
2022-11-10T22:49:29.376Z,80.28
2022-11-10T22:51:55.926Z,85.28
2022-11-10T22:54:23.943Z,87.32
2022-11-10T22:56:51.500Z,92.88
2022-11-10T22:59:18.878Z,98.00
2022-11-10T23:01:45.806Z,98.18
2022-11-10T23:04:12.657Z,105.28
2022-11-10T23:06:39.778Z,112.53
2022-11-10T23:09:06.393Z,113.20
2022-11-10T23:11:33.753Z,110.00
2022-11-10T23:14:00.514Z,97.53
2022-11-10T23:16:32.065Z,109.20
2022-11-10T23:18:59.060Z,110.22
2022-11-10T23:21:29.021Z,108.20
2022-11-10T23:23:56.270Z,115.20
2022-11-10T23:26:30.098Z,120.28
2022-11-10T23:28:56.688Z,117.73
2022-11-10T23:31:25.724Z,119.15
2022-11-10T23:33:56.636Z,118.47
2022-11-10T23:36:25.210Z,123.30
2022-11-10T23:38:52.002Z,126.72
2022-11-10T23:41:21.080Z,128.13
2022-11-10T23:43:47.696Z,133.85
2022-11-10T23:46:14.738Z,130.07
2022-11-10T23:48:42.211Z,131.48
2022-11-10T23:51:11.222Z,130.45
2022-11-10T23:53:38.192Z,130.98
2022-11-10T23:56:07.332Z,131.23
2022-11-10T23:58:33.892Z,127.97
